| time (UTC) | temp F | wind direction | speed MPH | gust MPH | rain 1hr in | rain 24hr in | rain mn in | humidity % | barometer mb |
| 20260903074521 | 77 | 360 | 5.0 | 12.0 | 0.00 | 0.00 | 0.00 | 54 | 1013.8 |
| 20260903073032 | 77 | 360 | 5.0 | 11.0 | 0.00 | 0.00 | 0.00 | 54 | 1013.8 |
| 20260903071511 | 77 | 360 | 5.0 | 11.0 | 0.00 | 0.00 | 0.00 | 55 | 1013.8 |
| 20260903070012 | 76 | 360 | 5.0 | 10.0 | 0.00 | 0.00 | 0.00 | 57 | 1013.8 |
| 20260903064516 | 76 | 360 | 5.0 | 10.0 | 0.00 | 0.00 | 0.00 | 58 | 1013.8 |
| 20260903063023 | 76 | 182 | 5.0 | 9.0 | 0.00 | 0.00 | 0.00 | 58 | 1013.8 |
| 20260903061541 | 76 | 360 | 4.0 | 10.0 | 0.00 | 0.00 | 0.00 | 59 | 1013.8 |
| 20260903060013 | 76 | 179 | 4.0 | 8.0 | 0.00 | 0.00 | 0.00 | 60 | 1013.7 |
| 20260903054514 | 76 | 360 | 4.0 | 8.0 | 0.00 | 0.00 | 0.00 | 58 | 1013.6 |
| 20260903053024 | 78 | 159 | 4.0 | 10.0 | 0.00 | 0.00 | 0.00 | 56 | 1013.5 |
| 20260903051528 | 78 | 360 | 4.0 | 9.0 | 0.00 | 0.00 | 0.00 | 56 | 1013.7 |
| 20260903050037 | 76 | 360 | 3.0 | 8.0 | 0.00 | 0.00 | 0.00 | 59 | 1013.8 |
| 20260903044516 | 76 | 360 | 3.0 | 6.0 | 0.00 | 0.00 | 0.00 | 60 | 1013.8 |
| 20260903043021 | 76 | 155 | 3.0 | 6.0 | 0.00 | 0.00 | 0.00 | 60 | 1013.7 |
| 20260903041536 | 77 | 173 | 2.0 | 5.0 | 0.00 | 0.00 | 0.00 | 58 | 1013.7 |
| 20260903040034 | 78 | 360 | 3.0 | 8.0 | 0.00 | 0.00 | 0.00 | 56 | 1013.8 |
| 20260903034542 | 80 | 175 | 2.0 | 5.0 | 0.00 | 0.00 | 0.00 | 54 | 1013.8 |
| 20260903033021 | 80 | 199 | 2.0 | 5.0 | 0.00 | 0.00 | 0.00 | 54 | 1013.8 |
| 20260903031523 | 80 | 185 | 2.0 | 5.0 | 0.00 | 0.00 | 0.00 | 53 | 1013.7 |
| 20260903030028 | 82 | 192 | 1.0 | 3.0 | 0.00 | 0.00 | 0.00 | 51 | 1013.5 |
| 20260903024533 | 83 | 360 | 2.0 | 5.0 | 0.00 | 0.00 | 0.00 | 49 | 1013.3 |
| 20260903023029 | 84 | 360 | 2.0 | 9.0 | 0.00 | 0.00 | 0.00 | 48 | 1013.2 |
| 20260903023003 | 84 | 190 | 2.0 | 9.0 | 0.00 | 0.00 | 0.00 | 48 | 1013.2 |
| 20260903021506 | 84 | 196 | 2.0 | 5.0 | 0.00 | 0.00 | 0.00 | 48 | 1013.0 |
| 20260903020003 | 84 | 360 | 2.0 | 5.0 | 0.00 | 0.00 | 0.00 | 48 | 1012.9 |
| 20260903014509 | 84 | 180 | 1.0 | 3.0 | 0.00 | 0.00 | 0.00 | 47 | 1012.7 |
| 20260903013015 | 87 | 228 | 1.0 | 5.0 | 0.00 | 0.00 | 0.00 | 44 | 1012.6 |
| 20260903011503 | 89 | 180 | 2.0 | 4.0 | 0.00 | 0.00 | 0.00 | 41 | 1012.5 |
| 20260903010007 | 90 | 360 | 2.0 | 6.0 | 0.00 | 0.00 | 0.00 | 39 | 1012.5 |
| 20260903004504 | 92 | 360 | 3.0 | 9.0 | 0.00 | 0.00 | 0.00 | 37 | 1012.5 |
| 20260903003011 | 93 | 202 | 5.0 | 12.0 | 0.00 | 0.00 | 0.00 | 35 | 1012.4 |
| 20260903001517 | 94 | 173 | 5.0 | 13.0 | 0.00 | 0.00 | 0.00 | 34 | 1012.3 |
| 20260903000004 | 95 | 148 | 4.0 | 12.0 | 0.00 | 0.00 | 0.00 | 33 | 1012.3 |
| 20260902234504 | 96 | 207 | 7.0 | 12.0 | 0.00 | 0.00 | 0.00 | 32 | 1012.2 |
| 20260902233010 | 96 | 360 | 6.0 | 11.0 | 0.00 | 0.00 | 0.00 | 32 | 1012.2 |
| 20260902231518 | 98 | 210 | 6.0 | 11.0 | 0.00 | 0.00 | 0.00 | 30 | 1012.3 |
| 20260902230004 | 98 | 360 | 1.0 | 10.0 | 0.00 | 0.00 | 0.00 | 30 | 1012.2 |
| 20260902224506 | 98 | 151 | 3.0 | 14.0 | 0.00 | 0.00 | 0.00 | 30 | 1012.3 |
| 20260902223008 | 98 | 251 | 3.0 | 8.0 | 0.00 | 0.00 | 0.00 | 30 | 1012.4 |
| 20260902221516 | 98 | 196 | 5.0 | 15.0 | 0.00 | 0.00 | 0.00 | 29 | 1012.4 |
| 20260902220016 | 99 | 360 | 3.0 | 13.0 | 0.00 | 0.00 | 0.00 | 31 | 1012.5 |
| 20260902214504 | 98 | 181 | 6.0 | 11.0 | 0.00 | 0.00 | 0.00 | 31 | 1012.5 |
| 20260902213022 | 98 | 185 | 5.0 | 13.0 | 0.00 | 0.00 | 0.00 | 32 | 1012.9 |
| 20260902211510 | 97 | 213 | 6.0 | 16.0 | 0.00 | 0.00 | 0.00 | 31 | 1013.2 |
| 20260902210026 | 98 | 210 | 6.0 | 13.0 | 0.00 | 0.00 | 0.00 | 32 | 1013.4 |
| 20260902204526 | 98 | 211 | 8.0 | 13.0 | 0.00 | 0.00 | 0.00 | 31 | 1013.5 |
| 20260902203005 | 98 | 213 | 3.0 | 15.0 | 0.00 | 0.00 | 0.00 | 29 | 1013.6 |
| 20260902201508 | 98 | 229 | 5.0 | 11.0 | 0.00 | 0.00 | 0.00 | 30 | 1013.7 |
| 20260902200016 | 98 | 210 | 3.0 | 9.0 | 0.00 | 0.00 | 0.00 | 27 | 1014.0 |
| 20260902194523 | 98 | 208 | 6.0 | 12.0 | 0.00 | 0.00 | 0.00 | 27 | 1014.2 |
| 20260902193025 | 97 | 242 | 4.0 | 10.0 | 0.00 | 0.00 | 0.00 | 29 | 1014.3 |
| 20260902191516 | 96 | 281 | 3.0 | 12.0 | 0.00 | 0.00 | 0.00 | 31 | 1014.4 |
| 20260902190017 | 96 | 253 | 5.0 | 11.0 | 0.00 | 0.00 | 0.00 | 33 | 1014.6 |
| 20260902184528 | 95 | 283 | 5.0 | 11.0 | 0.00 | 0.00 | 0.00 | 34 | 1015.1 |
| 20260902183028 | 94 | 360 | 4.0 | 14.0 | 0.00 | 0.00 | 0.00 | 36 | 1015.4 |
| 20260902181528 | 94 | 360 | 3.0 | 11.0 | 0.00 | 0.00 | 0.00 | 37 | 1015.5 |
| 20260902180015 | 93 | 360 | 6.0 | 11.0 | 0.00 | 0.00 | 0.00 | 38 | 1015.7 |
| 20260902174518 | 92 | 222 | 5.0 | 13.0 | 0.00 | 0.00 | 0.00 | 39 | 1015.9 |
| 20260902173024 | 92 | 360 | 3.0 | 16.0 | 0.00 | 0.00 | 0.00 | 40 | 1016.2 |
| 20260902171506 | 91 | 360 | 6.0 | 12.0 | 0.00 | 0.00 | 0.00 | 41 | 1016.2 |
| 20260902170005 | 90 | 360 | 4.0 | 12.0 | 0.00 | 0.00 | 0.00 | 41 | 1016.4 |
| 20260902164506 | 90 | 219 | 6.0 | 12.0 | 0.00 | 0.00 | 0.00 | 41 | 1016.4 |
| 20260902163002 | 89 | 360 | 6.0 | 13.0 | 0.00 | 0.00 | 0.00 | 42 | 1016.5 |
| 20260902161502 | 88 | 248 | 6.0 | 14.0 | 0.00 | 0.00 | 0.00 | 43 | 1016.5 |
| 20260902160009 | 86 | 242 | 6.0 | 12.0 | 0.00 | 0.00 | 0.00 | 46 | 1016.6 |
| 20260902154516 | 85 | 217 | 6.0 | 14.0 | 0.00 | 0.00 | 0.00 | 46 | 1016.7 |
| 20260902153014 | 84 | 221 | 4.0 | 11.0 | 0.00 | 0.00 | 0.00 | 47 | 1016.8 |
| 20260902151505 | 83 | 286 | 4.0 | 12.0 | 0.00 | 0.00 | 0.00 | 50 | 1016.7 |
| 20260902150007 | 80 | 208 | 4.0 | 13.0 | 0.00 | 0.00 | 0.00 | 54 | 1016.6 |
| 20260902144518 | 79 | 261 | 4.0 | 11.0 | 0.00 | 0.00 | 0.00 | 57 | 1016.6 |
| 20260902143013 | 77 | 254 | 3.0 | 9.0 | 0.00 | 0.00 | 0.00 | 58 | 1016.8 |
| 20260902141511 | 75 | 217 | 2.0 | 8.0 | 0.00 | 0.00 | 0.00 | 62 | 1016.8 |
| 20260902140004 | 73 | 360 | 2.0 | 6.0 | 0.00 | 0.00 | 0.00 | 65 | 1016.8 |
| 20260902134510 | 71 | 244 | 1.0 | 3.0 | 0.00 | 0.00 | 0.00 | 68 | 1017.1 |
| 20260902133012 | 71 | 360 | 0.0 | 4.0 | 0.00 | 0.00 | 0.00 | 67 | 1017.0 |
| 20260902131514 | 71 | 360 | 2.0 | 5.0 | 0.00 | 0.00 | 0.00 | 67 | 1016.7 |
| 20260902130015 | 70 | 220 | 2.0 | 6.0 | 0.00 | 0.00 | 0.00 | 68 | 1016.7 |
| 20260902124507 | 70 | 195 | 3.0 | 8.0 | 0.00 | 0.00 | 0.00 | 69 | 1016.6 |
| 20260902123013 | 69 | 360 | 2.0 | 5.0 | 0.00 | 0.00 | 0.00 | 71 | 1016.4 |
| 20260902121516 | 67 | 174 | 3.0 | 5.0 | 0.00 | 0.00 | 0.00 | 74 | 1016.2 |
| 20260902120017 | 66 | 360 | 1.0 | 4.0 | 0.00 | 0.00 | 0.00 | 76 | 1016.1 |
| 20260902114518 | 67 | 238 | 0.0 | 3.0 | 0.00 | 0.00 | 0.00 | 74 | 1015.9 |
| 20260902113013 | 68 | 230 | 1.0 | 5.0 | 0.00 | 0.00 | 0.00 | 72 | 1016.0 |
| 20260902111527 | 69 | 200 | 1.0 | 4.0 | 0.00 | 0.00 | 0.00 | 70 | 1016.0 |
| 20260902110023 | 70 | 360 | 3.0 | 6.0 | 0.00 | 0.00 | 0.00 | 69 | 1016.0 |
| 20260902104524 | 70 | 194 | 2.0 | 7.0 | 0.00 | 0.00 | 0.00 | 68 | 1016.1 |
| 20260902103022 | 71 | 182 | 2.0 | 7.0 | 0.00 | 0.00 | 0.00 | 67 | 1016.2 |
| 20260902101521 | 71 | 205 | 3.0 | 8.0 | 0.00 | 0.00 | 0.00 | 65 | 1016.1 |
| 20260902100023 | 72 | 360 | 4.0 | 8.0 | 0.00 | 0.00 | 0.00 | 64 | 1016.1 |
| 20260902094528 | 72 | 360 | 3.0 | 9.0 | 0.00 | 0.00 | 0.00 | 63 | 1016.1 |
| 20260902093026 | 73 | 360 | 3.0 | 6.0 | 0.00 | 0.00 | 0.00 | 63 | 1016.2 |
| 20260902091527 | 73 | 360 | 3.0 | 6.0 | 0.00 | 0.00 | 0.00 | 63 | 1016.2 |
| 20260902090023 | 73 | 197 | 2.0 | 6.0 | 0.00 | 0.00 | 0.00 | 62 | 1016.2 |
| 20260902084527 | 74 | 177 | 3.0 | 8.0 | 0.00 | 0.00 | 0.00 | 61 | 1016.3 |
| 20260902083027 | 74 | 193 | 3.0 | 8.0 | 0.00 | 0.00 | 0.00 | 61 | 1016.3 |
| 20260902081512 | 74 | 218 | 3.0 | 6.0 | 0.00 | 0.00 | 0.00 | 62 | 1016.3 |
| 20260902080020 | 74 | 219 | 2.0 | 8.0 | 0.00 | 0.00 | 0.00 | 63 | 1016.2 |